• Join FlightAware (Why Join?)
  • Login
  • US Flag 
01:51AM EDT


 

Airport Tracker/Info


-or-


 

Live Flight TrackerFlight Track Log ✈ OPT732 ✈ 08-May-2013 ✈ KBWI - KTEB

Flight Track Log - Related Links

Times and Time Zones

All times are in EDT time to prevent confusion due to time zone crossing. See the OPT732 flight status page for this flight to view local times or setup timezone preferences in your user account.

Time Position Orientation Groundspeed Altitude Reporting Facility
EDT Latitude Longitude Course Direction KTS MPH feet Rate Location/Type
11:48PM 39.2333 -76.6833 351° North 200 230 3,100  Level Potomac TRACON
11:49PM 39.2158 -76.5639 101° East 252 290 7,100 2,820 Climbing Washington Center
11:50PM 39.1956 -76.4753 106° East 265 305 10,700 3,000 Climbing Washington Center
11:51PM 39.1736 -76.3653 104° East 285 328 13,100 2,160 Climbing Washington Center
11:52PM 39.1575 -76.2553 101° East 301 346 15,000 900 Climbing Washington Center
11:53PM 39.2216 -76.1307 52° Northeast  Level FlightAware Approximate
11:53PM 39.2247 -76.1489 51° Northeast 317 365 15,000  Level Washington Center
11:54PM 39.3167 -76.0611 36° Northeast 351 404 15,000  Level Washington Center
11:57PM 39.5500 -75.8500 35° Northeast 427 491 15,100  Climbing Philadelphia TRACON
11:58PM 39.6333 -75.7500 43° Northeast 423 487 15,100 -540 Level Philadelphia TRACON
11:59PM 39.7333 -75.6667 33° Northeast 421 484 14,100 -960 Descending Philadelphia TRACON
12:00AM 39.8333 -75.5667 38° Northeast 409 471 13,100 -480 Descending Philadelphia TRACON
12:01AM 39.9167 -75.4833 37° Northeast 393 452 13,100  Level Philadelphia TRACON
12:02AM 39.9833 -75.4167 37° Northeast 385 443 13,100  Level Philadelphia TRACON
12:03AM 40.0667 -75.3500 31° Northeast 386 444 13,100 -300 Level Philadelphia TRACON
12:04AM 40.1833 -75.2333 37° Northeast 397 457 12,500 -1,320 Descending Philadelphia TRACON
12:05AM 40.3167 -75.1167 34° Northeast 342 394 9,300 -1,920 Descending New York TRACON
12:07AM 40.3833 -75.0167 49° Northeast 296 341 7,400 -1,620 Descending New York TRACON
12:08AM 40.4167 -74.9333 62° Northeast 277 319 5,900 -1,500 Descending New York TRACON
12:09AM 40.4667 -74.8500 52° Northeast 264 304 4,300 -1,320 Descending New York TRACON
12:10AM 40.5000 -74.7667 62° Northeast 272 313 3,300 -660 Descending New York TRACON
12:11AM 40.5333 -74.6833 62° Northeast 266 306 3,100 -120 Descending New York TRACON
12:12AM 40.5667 -74.6000 62° Northeast 264 304 3,100 -420 Level New York TRACON
12:13AM 40.6000 -74.5167 62° Northeast 259 298 2,300 -540 Descending New York TRACON
12:14AM 40.6333 -74.4333 62° Northeast 255 293 2,100 -120 Descending New York TRACON
12:15AM 40.6833 -74.3500 52° Northeast 246 283 2,100  Level New York TRACON
12:16AM 40.7000 -74.2833 72° East 242 278 2,100 -240 Level New York TRACON
12:17AM 40.7500 -74.2000 52° Northeast 258 297 1,700 -360 Descending New York TRACON
12:18AM 40.8000 -74.1333 45° Northeast 210 242 1,400 -600 Descending New York TRACON
12:19AM 40.8333 -74.1000 37° Northeast 148 170 600 -900 Descending New York TRACON
12:21AM 40.8501 -74.0608 57° Northeast  Level Estimated
12:28AM 40.8501 -74.0608 57° Northeast  Level Estimated